createdAt,value
2022-10-05T00:01:42.153Z,15.20
2022-10-05T00:07:36.824Z,14.90
2022-10-05T00:13:32.324Z,14.80
2022-10-05T00:19:30.726Z,14.80
2022-10-05T00:25:26.032Z,14.70
2022-10-05T00:31:21.519Z,14.80
2022-10-05T00:37:15.930Z,14.90
2022-10-05T00:43:31.583Z,14.80
2022-10-05T00:49:41.567Z,14.80
2022-10-05T00:55:44.502Z,15.00
2022-10-05T01:01:45.374Z,14.80
2022-10-05T01:07:45.206Z,15.00
2022-10-05T01:13:47.563Z,15.00
2022-10-05T01:20:01.530Z,15.00
2022-10-05T01:26:08.465Z,15.00
2022-10-05T01:32:10.240Z,14.80
2022-10-05T01:38:15.283Z,14.90
2022-10-05T01:44:12.855Z,14.80
2022-10-05T01:50:13.571Z,14.80
2022-10-05T01:56:13.338Z,15.00
2022-10-05T02:02:11.000Z,14.90
2022-10-05T02:08:11.014Z,15.00
2022-10-05T02:14:09.421Z,15.00
2022-10-05T02:20:06.893Z,15.10
2022-10-05T02:26:03.137Z,15.10
2022-10-05T02:32:01.463Z,14.90
2022-10-05T02:38:03.140Z,14.80
2022-10-05T02:44:07.404Z,14.80
2022-10-05T02:50:09.611Z,14.70
2022-10-05T02:56:13.781Z,14.90
2022-10-05T03:02:15.181Z,15.00
2022-10-05T03:08:16.636Z,15.00
2022-10-05T03:14:20.240Z,14.90
2022-10-05T03:20:29.581Z,14.90
2022-10-05T03:26:35.742Z,14.70
2022-10-05T03:32:35.852Z,14.60
2022-10-05T03:38:40.197Z,14.70
2022-10-05T03:44:41.855Z,14.70
2022-10-05T03:50:46.514Z,14.70
2022-10-05T03:56:47.052Z,14.70
2022-10-05T04:02:46.675Z,14.70
2022-10-05T04:08:47.996Z,14.80
2022-10-05T04:14:47.883Z,14.70
2022-10-05T04:20:46.223Z,14.70
2022-10-05T04:26:46.817Z,14.70
2022-10-05T04:32:45.626Z,14.60
2022-10-05T04:38:59.209Z,14.70
2022-10-05T04:45:09.513Z,14.80
2022-10-05T04:51:21.902Z,14.90
2022-10-05T04:57:20.333Z,14.70
2022-10-05T05:03:49.710Z,14.60
2022-10-05T05:10:16.081Z,14.50
2022-10-05T05:16:14.155Z,14.60
2022-10-05T05:22:12.813Z,14.50
2022-10-05T05:28:18.721Z,14.50
2022-10-05T05:34:39.466Z,14.60
2022-10-05T05:40:36.598Z,14.70
2022-10-05T05:47:01.912Z,14.70
2022-10-05T05:52:55.085Z,14.60
2022-10-05T05:58:53.330Z,14.50
2022-10-05T06:04:55.254Z,14.50
2022-10-05T06:10:53.965Z,14.60
2022-10-05T06:16:52.204Z,14.50
2022-10-05T06:22:48.566Z,14.60
2022-10-05T06:28:43.510Z,14.40
2022-10-05T06:34:57.032Z,14.40
2022-10-05T06:41:09.575Z,14.40
2022-10-05T06:47:18.322Z,14.40
2022-10-05T06:53:32.681Z,14.60
2022-10-05T06:59:38.759Z,14.60
2022-10-05T07:05:49.274Z,14.80
2022-10-05T07:12:04.906Z,14.70
2022-10-05T07:18:18.695Z,14.60
2022-10-05T07:24:27.639Z,14.60
2022-10-05T07:30:21.331Z,14.70
2022-10-05T07:36:41.517Z,14.50
2022-10-05T07:42:52.047Z,14.70
2022-10-05T07:49:03.497Z,14.70
2022-10-05T07:55:05.858Z,14.90
2022-10-05T08:01:09.509Z,14.90
2022-10-05T08:07:09.959Z,14.80
2022-10-05T08:13:13.799Z,14.90
2022-10-05T08:19:15.629Z,14.90
2022-10-05T08:25:20.671Z,14.90
2022-10-05T08:31:24.071Z,15.00
2022-10-05T08:37:23.484Z,15.10
2022-10-05T08:43:35.478Z,15.10
2022-10-05T08:50:03.268Z,15.10
2022-10-05T08:56:28.645Z,15.10
2022-10-05T09:02:34.014Z,15.20
2022-10-05T09:09:00.154Z,15.20
2022-10-05T09:15:24.852Z,15.30
2022-10-05T09:21:36.246Z,15.30
2022-10-05T09:27:38.238Z,15.30
2022-10-05T09:33:55.403Z,15.40
2022-10-05T09:40:26.709Z,15.40
2022-10-05T09:46:51.303Z,15.50
2022-10-05T09:53:01.750Z,15.50
2022-10-05T09:59:26.472Z,15.50
2022-10-05T10:05:47.406Z,15.60
2022-10-05T10:11:57.437Z,15.70
2022-10-05T10:18:30.908Z,15.70
2022-10-05T10:24:43.805Z,15.70
2022-10-05T10:30:59.363Z,15.80
2022-10-05T10:37:26.346Z,15.90
2022-10-05T10:43:49.636Z,15.90
2022-10-05T10:50:02.319Z,15.90
2022-10-05T10:56:12.977Z,16.00
2022-10-05T11:02:39.468Z,16.00
2022-10-05T11:09:09.702Z,16.00
2022-10-05T11:15:29.394Z,15.80
2022-10-05T11:21:30.775Z,15.80
2022-10-05T11:27:54.420Z,15.90
2022-10-05T11:34:19.219Z,15.80
2022-10-05T11:40:36.796Z,15.90
2022-10-05T11:46:33.900Z,15.90
2022-10-05T11:52:34.456Z,15.90
2022-10-05T11:58:35.127Z,15.90
2022-10-05T12:04:37.917Z,16.00
2022-10-05T12:10:38.126Z,16.00
2022-10-05T12:16:38.897Z,16.10
2022-10-05T12:22:38.755Z,16.10
2022-10-05T12:28:38.798Z,16.20
2022-10-05T12:34:49.030Z,16.40
2022-10-05T12:40:46.655Z,16.40
2022-10-05T12:46:48.353Z,16.60
2022-10-05T12:53:03.640Z,16.60
2022-10-05T12:59:05.631Z,16.60
2022-10-05T13:05:08.274Z,16.60
2022-10-05T13:11:12.728Z,16.90
2022-10-05T13:17:14.940Z,17.00
2022-10-05T13:23:14.698Z,17.00
2022-10-05T13:29:17.819Z,17.00
2022-10-05T13:35:28.903Z,17.00
2022-10-05T13:41:30.534Z,17.00
2022-10-05T13:47:32.865Z,17.10
2022-10-05T13:53:35.766Z,17.00
2022-10-05T13:59:36.668Z,17.20
2022-10-05T14:05:33.035Z,17.20
2022-10-05T14:11:31.547Z,17.40
2022-10-05T14:17:39.463Z,17.50
2022-10-05T14:23:34.258Z,17.70
2022-10-05T14:29:36.466Z,17.70
2022-10-05T14:35:32.103Z,17.70
2022-10-05T14:41:27.239Z,17.70
2022-10-05T14:47:24.065Z,17.70
2022-10-05T14:53:21.540Z,17.60
2022-10-05T14:59:36.713Z,17.60
2022-10-05T15:05:36.606Z,17.50
2022-10-05T15:11:39.309Z,17.40
2022-10-05T15:17:37.951Z,17.50
2022-10-05T15:23:36.915Z,17.50
2022-10-05T15:29:51.988Z,17.50
2022-10-05T15:36:06.456Z,17.50
2022-10-05T15:42:03.139Z,17.50
2022-10-05T15:48:01.950Z,17.50
2022-10-05T15:54:21.511Z,17.40
2022-10-05T16:00:16.093Z,17.30
2022-10-05T16:06:34.024Z,17.30
2022-10-05T16:12:37.903Z,17.30
2022-10-05T16:18:46.013Z,17.50
2022-10-05T16:25:02.595Z,17.30
2022-10-05T16:31:04.163Z,17.30
2022-10-05T16:37:06.197Z,17.30
2022-10-05T16:43:09.962Z,17.20
2022-10-05T16:49:15.937Z,17.30
2022-10-05T16:55:15.731Z,17.10
2022-10-05T17:01:17.964Z,17.00
2022-10-05T17:07:46.649Z,16.90
2022-10-05T17:13:58.732Z,16.90
2022-10-05T17:20:04.641Z,16.90
2022-10-05T17:26:05.624Z,16.90
2022-10-05T17:32:12.828Z,17.10
2022-10-05T17:38:18.481Z,16.80
2022-10-05T17:44:26.530Z,16.90
2022-10-05T17:50:56.518Z,16.70
2022-10-05T17:57:16.239Z,16.60
2022-10-05T18:03:39.530Z,16.70
2022-10-05T18:09:51.709Z,16.70
2022-10-05T18:15:48.904Z,16.60
2022-10-05T18:22:03.712Z,16.50
2022-10-05T18:28:22.516Z,16.50
2022-10-05T18:34:28.518Z,16.40
2022-10-05T18:40:38.764Z,16.40
2022-10-05T18:46:41.879Z,16.40
2022-10-05T18:52:49.434Z,16.40
2022-10-05T18:58:56.607Z,16.30
2022-10-05T19:05:23.608Z,16.30
2022-10-05T19:11:28.118Z,16.30
2022-10-05T19:17:27.122Z,16.30
2022-10-05T19:23:32.472Z,16.20
2022-10-05T19:29:43.200Z,16.20
2022-10-05T19:35:49.958Z,16.20
2022-10-05T19:42:00.485Z,16.20
2022-10-05T19:48:09.866Z,16.20
2022-10-05T19:54:15.348Z,16.10
2022-10-05T20:00:17.021Z,16.20
2022-10-05T20:06:12.124Z,16.20
2022-10-05T20:12:07.003Z,16.20
2022-10-05T20:18:37.753Z,16.20
2022-10-05T20:24:32.425Z,16.40
2022-10-05T20:30:29.194Z,16.40
2022-10-05T20:36:22.049Z,16.40
2022-10-05T20:42:15.538Z,16.50
2022-10-05T20:48:10.250Z,16.60
2022-10-05T20:54:03.514Z,16.70
2022-10-05T20:59:56.723Z,16.80
2022-10-05T21:05:51.326Z,16.90
2022-10-05T21:11:45.226Z,17.00
2022-10-05T21:17:39.191Z,17.10
2022-10-05T21:23:33.934Z,17.20
2022-10-05T21:29:27.148Z,17.30
2022-10-05T21:35:20.389Z,17.30
2022-10-05T21:41:15.341Z,17.40
2022-10-05T21:47:08.642Z,17.40
2022-10-05T21:53:03.702Z,17.50
2022-10-05T21:58:58.708Z,17.40
2022-10-05T22:04:52.189Z,17.50
2022-10-05T22:10:45.618Z,17.50
2022-10-05T22:16:40.389Z,17.50
2022-10-05T22:22:34.495Z,17.50
2022-10-05T22:28:28.581Z,17.50
2022-10-05T22:34:23.556Z,17.50
2022-10-05T22:40:17.026Z,17.50
2022-10-05T22:46:11.218Z,17.50
2022-10-05T22:52:05.919Z,17.50
2022-10-05T22:57:59.153Z,17.50
2022-10-05T23:03:52.434Z,17.50
2022-10-05T23:09:47.013Z,17.50
2022-10-05T23:15:40.258Z,17.50
2022-10-05T23:21:33.578Z,17.40
2022-10-05T23:27:28.172Z,17.10
2022-10-05T23:33:21.599Z,16.80
2022-10-05T23:39:15.195Z,16.70
2022-10-05T23:45:11.371Z,16.50
2022-10-05T23:51:05.209Z,16.40
2022-10-05T23:56:58.098Z,16.30
